Time;durP1;ratioP1;P1;durP2;ratioP2;P2;SDS_P1;SDS_P2;PMS_P1;PMS_P2;Temp;Humidity;BMP_temperature;BMP_pressure;BME280_temperature;BME280_humidity;BME280_pressure;Samples;Min_cycle;Max_cycle;Signal;HPM_P1;HPM_P2
2021/12/23 00:00:59;;;;;;;338.55;135.05;;;;;;;-10.27;71.02;98012.84;1696170;83;25643;-76
2021/12/23 00:03:26;;;;;;;288.18;116.45;;;;;;;-10.25;70.96;98003.61;1696977;83;27289;-85
2021/12/23 00:05:55;;;;;;;285.68;122.30;;;;;;;-10.26;70.97;98000.61;1678181;84;25876;-77
2021/12/23 00:08:22;;;;;;;286.05;120.77;;;;;;;-10.27;70.97;98002.41;1675517;84;27450;-77
2021/12/23 00:10:49;;;;;;;297.90;123.55;;;;;;;-10.25;70.99;98004.91;1675079;84;25769;-80
2021/12/23 00:13:16;;;;;;;265.15;111.92;;;;;;;-10.24;71.02;98006.61;1675334;84;25794;-77
2021/12/23 00:23:38;;;;;;;336.18;140.35;;;;;;;-10.22;71.04;97999.56;1712611;83;25838;-76
2021/12/23 00:26:05;;;;;;;320.05;132.93;;;;;;;-10.22;70.98;97993.03;1692680;83;25744;-77
2021/12/23 00:28:32;;;;;;;311.05;126.97;;;;;;;-10.25;71.01;97983.58;1682059;84;25751;-84
2021/12/23 00:30:59;;;;;;;260.10;109.97;;;;;;;-10.26;71.05;97977.96;1673759;84;26289;-84
2021/12/23 00:33:28;;;;;;;233.35;103.58;;;;;;;-10.28;71.12;97974.59;1677978;84;28233;-78
2021/12/23 00:35:55;;;;;;;196.30;85.70;;;;;;;-10.28;71.20;97975.05;1696757;84;25846;-76
2021/12/23 00:38:38;;;;;;;172.28;77.25;;;;;;;-10.33;71.27;97971.80;1705910;84;25730;-85
2021/12/23 00:40:53;;;;;;;170.62;76.62;;;;;;;-10.29;71.40;97968.14;1704633;84;25848;-79
2021/12/23 00:43:20;;;;;;;156.25;71.00;;;;;;;-10.23;71.47;97969.15;1707072;84;25736;-81
2021/12/23 00:45:48;;;;;;;150.97;71.15;;;;;;;-10.18;71.51;97963.73;1707272;84;27369;-82
2021/12/23 00:48:17;;;;;;;157.18;72.50;;;;;;;-10.18;71.51;97952.83;1707045;84;25820;-82
2021/12/23 00:50:44;;;;;;;168.57;78.35;;;;;;;-10.16;71.57;97954.88;1707253;84;26520;-76
2021/12/23 00:53:13;;;;;;;175.65;75.67;;;;;;;-10.15;71.60;97955.27;1707142;84;25900;-76
2021/12/23 00:55:39;;;;;;;157.88;73.78;;;;;;;-10.13;71.65;97956.48;1707185;84;25679;-76
2021/12/23 00:58:06;;;;;;;155.95;70.60;;;;;;;-10.10;71.70;97949.81;1697708;84;28180;-77
2021/12/23 01:00:33;;;;;;;158.60;69.27;;;;;;;-10.10;71.73;97955.89;1677851;84;25738;-78
2021/12/23 01:03:00;;;;;;;150.18;68.62;;;;;;;-10.10;71.80;97946.75;1677869;84;25745;-87
2021/12/23 01:05:28;;;;;;;146.07;63.17;;;;;;;-10.09;71.85;97947.14;1677957;84;25714;-75
2021/12/23 01:07:54;;;;;;;139.37;64.80;;;;;;;-10.07;71.91;97942.70;1675002;85;25894;-76
2021/12/23 01:10:23;;;;;;;134.65;60.85;;;;;;;-10.05;71.96;97942.17;1650837;85;28763;-76
2021/12/23 01:12:55;;;;;;;128.87;60.55;;;;;;;-10.03;72.07;97936.42;1669178;84;25772;-83
2021/12/23 01:17:56;;;;;;;123.53;55.88;;;;;;;-9.93;72.22;97925.92;1674405;83;27157;-77
2021/12/23 01:20:30;;;;;;;118.10;54.53;;;;;;;-9.89;72.28;97930.06;1675449;83;25723;-79
2021/12/23 01:23:07;;;;;;;113.10;51.55;;;;;;;-9.86;72.34;97923.39;1674457;85;28388;-76
2021/12/23 01:25:38;;;;;;;116.55;51.42;;;;;;;-9.83;72.37;97927.17;1673734;83;26421;-80
2021/12/23 01:28:07;;;;;;;115.40;50.78;;;;;;;-9.78;72.49;97930.03;1673818;84;25809;-84
2021/12/23 01:30:37;;;;;;;130.57;54.73;;;;;;;-9.70;72.54;97930.50;1674738;83;26515;-76
2021/12/23 01:33:06;;;;;;;135.60;56.20;;;;;;;-9.65;72.53;97931.95;1673998;84;25752;-77
2021/12/23 01:35:34;;;;;;;111.30;49.60;;;;;;;-9.60;72.53;97930.44;1673921;84;27382;-76
2021/12/23 01:38:01;;;;;;;103.12;47.40;;;;;;;-9.63;72.59;97922.73;1682688;84;25303;-76
2021/12/23 01:40:28;;;;;;;105.78;48.15;;;;;;;-9.61;72.61;97930.05;1697909;84;25762;-80
2021/12/23 01:42:56;;;;;;;106.67;47.95;;;;;;;-9.58;72.59;97928.14;1703101;84;25820;-76
2021/12/23 01:45:30;;;;;;;129.90;54.70;;;;;;;-9.52;72.60;97924.36;1703075;84;25275;-75
2021/12/23 01:47:58;;;;;;;124.18;55.55;;;;;;;-9.50;72.52;97913.37;1703045;84;28211;-76
2021/12/23 01:50:29;;;;;;;105.97;43.73;;;;;;;-9.47;72.57;97910.61;1703024;84;25818;-76
2021/12/23 01:52:59;;;;;;;116.15;51.20;;;;;;;-9.44;72.57;97907.86;1677428;84;25711;-85
2021/12/23 01:55:27;;;;;;;103.22;44.13;;;;;;;-9.43;72.57;97899.55;1673900;83;25748;-80
2021/12/23 01:57:55;;;;;;;90.70;42.60;;;;;;;-9.41;72.60;97897.22;1667659;85;25693;-77
2021/12/23 02:00:27;;;;;;;89.35;41.80;;;;;;;-9.37;72.58;97898.77;1673960;84;27343;-81
2021/12/23 02:02:55;;;;;;;83.67;41.25;;;;;;;-9.35;72.65;97893.47;1669815;84;25779;-81
2021/12/23 02:05:23;;;;;;;90.87;41.35;;;;;;;-9.29;72.64;97892.69;1673853;84;25783;-81
2021/12/23 02:07:50;;;;;;;88.37;39.85;;;;;;;-9.29;72.49;97892.69;1668702;83;25850;-78
2021/12/23 02:10:20;;;;;;;89.05;38.20;;;;;;;-9.32;72.50;97887.64;1654915;85;25808;-87
2021/12/23 02:12:49;;;;;;;88.20;40.92;;;;;;;-9.30;72.55;97881.87;1652792;85;28285;-77
2021/12/23 02:15:17;;;;;;;94.10;44.77;;;;;;;-9.29;72.51;97875.69;1654806;85;25923;-77
2021/12/23 02:17:45;;;;;;;86.60;39.65;;;;;;;-9.28;72.46;97881.30;1651698;85;25753;-75
2021/12/23 02:20:17;;;;;;;79.37;38.40;;;;;;;-9.26;72.48;97877.31;1658966;85;25767;-78
2021/12/23 02:22:44;;;;;;;82.37;37.60;;;;;;;-9.29;72.49;97875.69;1675571;84;26322;-77
2021/12/23 02:25:13;;;;;;;87.42;39.50;;;;;;;-9.31;72.50;97869.72;1677899;84;28094;-76
2021/12/23 02:27:40;;;;;;;92.67;40.23;;;;;;;-9.31;72.54;97873.64;1675644;85;25736;-82
2021/12/23 02:30:13;;;;;;;90.03;40.00;;;;;;;-9.31;72.56;97863.64;1666477;84;25879;-79
2021/12/23 02:32:39;;;;;;;74.97;35.63;;;;;;;-9.32;72.60;97854.95;1679724;85;26519;-76
2021/12/23 02:35:11;;;;;;;81.75;39.05;;;;;;;-9.35;72.65;97853.80;1674423;84;25787;-76
2021/12/23 02:37:39;;;;;;;82.55;39.27;;;;;;;-9.40;72.68;97855.79;1673332;84;28190;-76
2021/12/23 02:40:08;;;;;;;75.60;35.08;;;;;;;-9.45;72.63;97857.81;1677647;84;26037;-76
2021/12/23 02:42:35;;;;;;;83.30;37.30;;;;;;;-9.46;72.64;97848.27;1674551;84;25291;-77
2021/12/23 02:45:09;;;;;;;76.00;37.50;;;;;;;-9.46;72.62;97844.35;1651435;85;25946;-78
2021/12/23 02:47:32;;;;;;;85.60;40.05;;;;;;;-9.46;72.49;97852.19;1653361;85;26566;-75
2021/12/23 02:49:58;;;;;;;92.12;41.58;;;;;;;-9.46;72.53;97843.89;1651360;85;28275;-77
2021/12/23 02:52:25;;;;;;;91.95;42.03;;;;;;;-9.46;72.17;97846.97;1652258;85;26545;-77
2021/12/23 02:54:57;;;;;;;104.80;45.25;;;;;;;-9.50;72.21;97838.88;1652170;85;25825;-80
2021/12/23 02:57:24;;;;;;;95.35;44.00;;;;;;;-9.50;72.14;97837.58;1651905;85;25808;-84
2021/12/23 02:59:52;;;;;;;85.20;38.15;;;;;;;-9.57;72.10;97836.21;1651623;85;25775;-75
2021/12/23 03:02:19;;;;;;;73.12;35.83;;;;;;;-9.61;72.08;97831.59;1651540;85;27385;-76
2021/12/23 03:04:45;;;;;;;73.12;35.23;;;;;;;-9.67;72.15;97831.92;1651337;86;25803;-76
2021/12/23 03:07:12;;;;;;;72.15;33.15;;;;;;;-9.71;72.24;97833.44;1657737;84;25784;-76
2021/12/23 03:09:38;;;;;;;69.80;33.80;;;;;;;-9.75;72.29;97827.52;1673649;84;25723;-76
2021/12/23 03:12:06;;;;;;;74.20;35.92;;;;;;;-9.78;72.21;97828.15;1673784;84;25650;-76
2021/12/23 03:14:33;;;;;;;70.45;33.05;;;;;;;-9.89;72.13;97828.19;1674581;83;27514;-85
2021/12/23 03:17:00;;;;;;;66.72;33.95;;;;;;;-9.92;72.31;97825.75;1673778;84;25798;-88
2021/12/23 03:19:26;;;;;;;70.15;33.70;;;;;;;-9.91;72.41;97830.06;1673686;84;25786;-81
2021/12/23 03:21:53;;;;;;;72.58;36.28;;;;;;;-9.84;72.43;97828.83;1673750;84;25837;-78
2021/12/23 03:24:20;;;;;;;74.65;32.75;;;;;;;-9.86;72.33;97820.21;1677285;83;25893;-77
2021/12/23 03:26:47;;;;;;;70.42;34.53;;;;;;;-9.88;72.29;97823.36;1673569;84;27370;-76
2021/12/23 03:29:14;;;;;;;79.40;36.30;;;;;;;-9.88;72.29;97816.83;1673671;84;25778;-80
2021/12/23 03:31:41;;;;;;;76.40;34.23;;;;;;;-9.88;72.26;97820.75;1673788;84;26599;-80
2021/12/23 03:34:07;;;;;;;68.22;32.58;;;;;;;-9.88;72.15;97816.83;1673965;84;25764;-86
2021/12/23 03:36:34;;;;;;;70.00;33.18;;;;;;;-9.97;72.06;97812.06;1673904;85;25708;-87
2021/12/23 03:39:01;;;;;;;64.70;30.60;;;;;;;-10.11;72.07;97809.28;1673832;83;28148;-76
2021/12/23 03:41:28;;;;;;;64.87;31.97;;;;;;;-10.21;72.21;97811.98;1684669;83;25908;-76
2021/12/23 03:43:54;;;;;;;69.17;32.00;;;;;;;-10.30;72.36;97810.67;1692028;84;25763;-76
2021/12/23 03:46:21;;;;;;;65.32;31.52;;;;;;;-10.29;72.40;97812.83;1686553;84;25677;-78
2021/12/23 03:48:48;;;;;;;64.25;30.82;;;;;;;-10.32;72.43;97810.36;1709068;78;25809;-80
2021/12/23 03:51:15;;;;;;;72.27;31.87;;;;;;;-10.31;72.54;97819.88;1728512;83;28254;-80
2021/12/23 03:53:42;;;;;;;72.65;31.73;;;;;;;-10.30;72.60;97810.67;1770327;81;25713;-79
2021/12/23 03:56:08;;;;;;;71.28;33.02;;;;;;;-10.28;72.60;97810.15;1762026;81;25643;-81
2021/12/23 03:58:35;;;;;;;67.08;30.12;;;;;;;-10.23;72.57;97803.38;1750595;81;25784;-79
2021/12/23 04:01:04;;;;;;;76.65;30.43;;;;;;;-10.22;72.54;97797.24;1770541;81;25661;-81
2021/12/23 04:03:31;;;;;;;72.25;31.90;;;;;;;-10.25;72.43;97796.08;1766195;81;27411;-80
2021/12/23 04:05:57;;;;;;;71.85;29.67;;;;;;;-10.32;72.36;97792.09;1767287;81;25702;-79
2021/12/23 04:08:24;;;;;;;62.38;29.60;;;;;;;-10.38;72.43;97797.62;1769806;81;25286;-80
2021/12/23 04:10:50;;;;;;;65.12;31.40;;;;;;;-10.43;72.46;97793.06;1770599;81;26107;-79
2021/12/23 04:13:17;;;;;;;67.55;30.57;;;;;;;-10.45;72.53;97789.67;1770528;81;25888;-79
2021/12/23 04:15:43;;;;;;;79.35;33.85;;;;;;;-10.45;72.52;97784.46;1766278;81;28003;-80
2021/12/23 04:18:10;;;;;;;77.08;33.30;;;;;;;-10.42;72.49;97770.81;1766232;81;25695;-81
2021/12/23 04:20:52;;;;;;;72.85;33.00;;;;;;;-10.40;72.40;97772.05;1770520;81;25762;-80
2021/12/23 04:23:05;;;;;;;71.40;31.25;;;;;;;-10.41;72.31;97767.75;1763318;81;25780;-81
2021/12/23 04:25:32;;;;;;;67.30;32.73;;;;;;;-10.48;72.12;97759.81;1770458;81;26326;-81
2021/12/23 04:28:01;;;;;;;65.70;29.25;;;;;;;-10.53;72.18;97770.48;1769512;80;27337;-80
2021/12/23 04:30:28;;;;;;;56.60;27.15;;;;;;;-10.54;72.20;97767.95;1738908;81;25662;-79
2021/12/23 04:32:56;;;;;;;71.22;31.37;;;;;;;-10.63;72.19;97770.09;1767039;81;25661;-79
2021/12/23 04:35:22;;;;;;;71.55;30.48;;;;;;;-10.62;72.28;97764.38;1749279;81;25702;-80
2021/12/23 04:37:49;;;;;;;68.85;31.10;;;;;;;-10.60;72.25;97764.70;1744567;81;25265;-79
2021/12/23 04:40:16;;;;;;;76.50;32.80;;;;;;;-10.56;72.27;97766.25;1740303;81;27327;-79
2021/12/23 04:42:45;;;;;;;72.82;32.67;;;;;;;-10.53;72.21;97768.33;1739971;81;25674;-79
2021/12/23 04:45:11;;;;;;;69.00;31.10;;;;;;;-10.52;72.04;97767.42;1740312;81;25744;-79
2021/12/23 04:47:39;;;;;;;62.78;29.80;;;;;;;-10.54;71.97;97773.16;1740378;81;26452;-80
2021/12/23 04:50:10;;;;;;;66.92;30.00;;;;;;;-10.58;71.98;97767.23;1758783;79;25798;-79
2021/12/23 04:52:37;;;;;;;68.85;31.48;;;;;;;-10.57;71.97;97767.17;1760336;80;27449;-80
2021/12/23 04:55:06;;;;;;;67.65;32.50;;;;;;;-10.58;71.97;97758.95;1760261;80;25991;-79
2021/12/23 04:57:32;;;;;;;71.75;30.80;;;;;;;-10.59;71.77;97757.26;1760235;80;25737;-79
2021/12/23 04:59:59;;;;;;;64.67;31.07;;;;;;;-10.65;71.73;97753.66;1760266;81;26013;-79
2021/12/23 05:02:26;;;;;;;69.10;33.23;;;;;;;-10.68;71.76;97753.80;1764640;79;25704;-79
2021/12/23 05:04:53;;;;;;;72.12;32.45;;;;;;;-10.69;71.80;97748.64;1760232;80;27379;-79
2021/12/23 05:07:20;;;;;;;73.37;33.18;;;;;;;-10.77;71.80;97745.56;1767524;78;26300;-79
2021/12/23 05:09:47;;;;;;;78.62;34.40;;;;;;;-10.79;71.92;97739.11;1786688;78;25767;-81
2021/12/23 05:12:14;;;;;;;80.90;33.78;;;;;;;-10.77;71.98;97737.28;1781082;79;26335;-79
2021/12/23 05:14:40;;;;;;;75.50;35.00;;;;;;;-10.75;71.99;97732.00;1789375;78;25733;-79
2021/12/23 05:17:07;;;;;;;74.80;31.90;;;;;;;-10.72;72.02;97722.23;1804479;78;27333;-80
2021/12/23 05:19:33;;;;;;;66.77;32.55;;;;;;;-10.69;72.06;97715.58;1781062;79;25737;-80
2021/12/23 05:22:00;;;;;;;72.75;32.50;;;;;;;-10.69;71.94;97716.89;1780982;79;25694;-80
2021/12/23 05:24:27;;;;;;;73.07;32.78;;;;;;;-10.78;71.96;97723.85;1788583;78;25837;-79
2021/12/23 05:26:53;;;;;;;63.52;31.17;;;;;;;-10.81;71.97;97708.80;1789779;78;25732;-79
2021/12/23 05:29:20;;;;;;;70.70;31.77;;;;;;;-10.82;72.18;97716.23;1794703;78;27342;-79
2021/12/23 05:31:47;;;;;;;71.28;32.38;;;;;;;-10.79;72.26;97711.73;1780880;79;25817;-79
2021/12/23 05:34:13;;;;;;;74.87;33.50;;;;;;;-10.74;72.29;97703.66;1780984;79;25709;-79
2021/12/23 05:36:41;;;;;;;78.33;34.73;;;;;;;-10.72;72.25;97704.44;1788468;78;25633;-79
2021/12/23 05:39:08;;;;;;;82.80;39.60;;;;;;;-10.71;72.22;97693.09;1781076;79;25689;-79
2021/12/23 05:41:35;;;;;;;97.33;45.33;;;;;;;-10.69;72.22;97697.32;1793073;78;27443;-80
2021/12/23 05:44:03;;;;;;;124.33;53.65;;;;;;;-10.67;72.16;97698.09;1796079;78;26268;-79
2021/12/23 05:46:30;;;;;;;119.33;52.38;;;;;;;-10.67;72.14;97696.80;1784739;79;25815;-79
2021/12/23 05:48:57;;;;;;;111.30;48.92;;;;;;;-10.69;72.11;97698.63;1786808;79;26324;-81
2021/12/23 05:51:23;;;;;;;105.70;45.80;;;;;;;-10.72;72.11;97697.46;1791548;79;25686;-80
2021/12/23 05:53:50;;;;;;;110.63;48.65;;;;;;;-10.70;72.04;97698.70;1785698;79;27360;-79
2021/12/23 05:56:17;;;;;;;121.53;49.90;;;;;;;-10.74;71.88;97697.98;1778106;79;25740;-80
2021/12/23 05:58:43;;;;;;;113.37;49.15;;;;;;;-10.77;71.95;97699.47;1791497;79;25762;-79
2021/12/23 06:01:10;;;;;;;140.95;60.78;;;;;;;-10.79;71.99;97692.17;1791510;79;25662;-80
2021/12/23 06:03:39;;;;;;;135.25;56.25;;;;;;;-10.74;72.07;97690.63;1791554;79;25721;-81
2021/12/23 06:06:05;;;;;;;163.47;68.95;;;;;;;-10.76;71.91;97678.98;1791611;79;30046;-81
2021/12/23 06:08:31;;;;;;;160.93;68.62;;;;;;;-10.74;71.99;97673.21;1791558;79;25650;-81
2021/12/23 06:10:58;;;;;;;177.95;76.22;;;;;;;-10.74;71.82;97671.06;1791689;80;25220;-81
2021/12/23 06:13:25;;;;;;;150.45;65.28;;;;;;;-10.79;71.65;97665.24;1791586;79;25686;-81
2021/12/23 06:15:51;;;;;;;109.87;49.30;;;;;;;-10.85;71.45;97667.67;1791694;79;25734;-81
2021/12/23 06:18:18;;;;;;;104.00;46.40;;;;;;;-10.90;71.66;97677.95;1791581;79;27476;-81
2021/12/23 06:20:44;;;;;;;96.92;44.53;;;;;;;-10.86;71.92;97669.89;1793725;78;25765;-81
2021/12/23 06:23:11;;;;;;;114.90;51.90;;;;;;;-10.82;71.89;97671.45;1783683;78;25619;-81
2021/12/23 06:25:38;;;;;;;172.50;72.67;;;;;;;-10.82;71.92;97666.23;1780953;79;25759;-80
2021/12/23 06:28:04;;;;;;;183.03;75.57;;;;;;;-10.82;71.75;97668.84;1781023;79;25678;-81
2021/12/23 06:30:31;;;;;;;141.28;60.60;;;;;;;-10.92;71.59;97661.92;1780995;79;27429;-81
2021/12/23 06:32:58;;;;;;;144.57;58.10;;;;;;;-10.95;71.65;97670.34;1780933;80;25669;-81
2021/12/23 06:35:29;;;;;;;138.92;61.10;;;;;;;-10.93;71.84;97671.12;1781087;80;25766;-81
2021/12/23 06:37:56;;;;;;;137.70;60.67;;;;;;;-10.92;71.87;97671.51;1781240;79;25758;-81
2021/12/23 06:40:23;;;;;;;156.40;66.30;;;;;;;-10.91;71.97;97665.38;1780968;79;25670;-81
2021/12/23 06:42:51;;;;;;;136.55;61.10;;;;;;;-10.88;72.01;97668.30;1780655;79;27484;-81
2021/12/23 06:45:17;;;;;;;138.57;59.60;;;;;;;-10.86;72.00;97675.11;1780610;79;25664;-81
2021/12/23 06:47:44;;;;;;;135.32;57.95;;;;;;;-10.83;72.06;97667.60;1780951;79;26237;-81
2021/12/23 06:50:13;;;;;;;138.18;60.20;;;;;;;-10.86;71.93;97667.28;1758783;79;26463;-82
2021/12/23 06:52:40;;;;;;;131.87;56.77;;;;;;;-10.81;72.15;97666.62;1748467;80;25639;-81
2021/12/23 06:55:10;;;;;;;128.23;60.23;;;;;;;-10.78;72.16;97666.94;1748410;82;27427;-82
2021/12/23 06:57:38;;;;;;;134.22;59.93;;;;;;;-10.78;72.27;97657.34;1748561;81;26401;-81
2021/12/23 07:00:10;;;;;;;112.62;57.43;;;;;;;-10.79;72.36;97650.44;1748756;80;26270;-81
2021/12/23 07:02:39;;;;;;;92.75;43.58;;;;;;;-10.81;72.32;97648.36;1748807;81;25730;-81
2021/12/23 07:05:06;;;;;;;112.70;52.58;;;;;;;-10.79;72.45;97643.92;1748579;80;26232;-81
2021/12/23 07:07:43;;;;;;;109.72;51.90;;;;;;;-10.83;72.46;97638.45;1748613;80;27355;-81
2021/12/23 07:10:02;;;;;;;110.15;50.45;;;;;;;-10.86;72.54;97643.81;1747096;80;25857;-81
2021/12/23 07:12:28;;;;;;;103.67;48.68;;;;;;;-10.80;72.70;97643.53;1748723;80;25720;-81
2021/12/23 07:14:55;;;;;;;97.02;47.48;;;;;;;-10.76;72.77;97645.08;1748682;80;26641;-81
2021/12/23 07:17:21;;;;;;;102.82;49.27;;;;;;;-10.66;72.86;97642.41;1748801;81;26188;-81
2021/12/23 07:19:48;;;;;;;101.25;50.35;;;;;;;-10.63;72.89;97642.72;1748828;81;27499;-81
2021/12/23 07:22:15;;;;;;;100.25;47.03;;;;;;;-10.56;72.92;97633.19;1748649;80;25758;-81
2021/12/23 07:24:41;;;;;;;101.02;47.08;;;;;;;-10.48;72.82;97633.26;1748994;80;25693;-81
2021/12/23 07:27:09;;;;;;;100.45;49.27;;;;;;;-10.43;72.81;97636.49;1748657;80;25783;-81
2021/12/23 07:29:36;;;;;;;101.07;49.55;;;;;;;-10.39;72.76;97627.59;1748686;82;25734;-81
2021/12/23 07:32:06;;;;;;;98.22;49.53;;;;;;;-10.34;72.80;97629.03;1748767;81;27400;-81
2021/12/23 07:34:33;;;;;;;120.72;55.65;;;;;;;-10.32;72.82;97631.58;1748595;80;25250;-81
2021/12/23 07:37:00;;;;;;;131.10;62.08;;;;;;;-10.33;72.84;97632.49;1748704;82;25746;-81
2021/12/23 07:39:26;;;;;;;138.12;66.28;;;;;;;-10.31;72.84;97625.44;1742115;82;25880;-81
2021/12/23 07:41:53;;;;;;;134.67;62.50;;;;;;;-10.30;72.87;97633.65;1718485;82;25919;-81
2021/12/23 07:44:20;;;;;;;140.82;64.87;;;;;;;-10.27;72.88;97623.91;1718494;82;28402;-81
2021/12/23 07:46:49;;;;;;;146.70;68.95;;;;;;;-10.22;72.88;97621.88;1718414;82;26055;-81
2021/12/23 07:49:17;;;;;;;149.68;68.22;;;;;;;-10.15;72.87;97622.40;1724047;80;25674;-81
2021/12/23 07:51:43;;;;;;;144.35;66.20;;;;;;;-10.11;72.96;97618.69;1708591;83;25863;-81
2021/12/23 07:54:10;;;;;;;154.38;74.00;;;;;;;-10.08;72.99;97612.47;1711479;82;25702;-81
2021/12/23 07:56:37;;;;;;;158.05;75.50;;;;;;;-10.00;73.10;97621.58;1711638;82;27518;-81
2021/12/23 07:59:04;;;;;;;167.37;81.95;;;;;;;-9.93;73.21;97620.34;1711534;82;25845;-81
2021/12/23 08:01:30;;;;;;;166.40;79.80;;;;;;;-9.84;73.27;97613.79;1711653;82;25797;-81
2021/12/23 08:03:57;;;;;;;170.43;80.20;;;;;;;-9.75;73.37;97609.84;1711753;82;26506;-81
2021/12/23 08:06:24;;;;;;;161.92;79.22;;;;;;;-9.67;73.48;97599.38;1711674;82;25742;-81
2021/12/23 08:08:50;;;;;;;158.68;75.52;;;;;;;-9.55;73.53;97597.87;1711775;83;27359;-81
2021/12/23 08:11:17;;;;;;;160.82;75.37;;;;;;;-9.46;73.53;97590.36;1711711;82;25789;-82
2021/12/23 08:13:43;;;;;;;166.88;77.58;;;;;;;-9.35;73.59;97585.84;1711797;82;25746;-81
2021/12/23 08:16:10;;;;;;;172.35;78.30;;;;;;;-9.25;73.63;97594.86;1711695;82;25699;-81
2021/12/23 08:18:37;;;;;;;141.92;66.87;;;;;;;-9.17;73.65;97589.19;1711814;82;25378;-80
2021/12/23 08:21:03;;;;;;;157.80;77.45;;;;;;;-9.07;73.71;97583.01;1711835;82;27528;-81
2021/12/23 08:23:30;;;;;;;160.85;80.83;;;;;;;-8.89;73.83;97580.64;1711560;82;26482;-79
2021/12/23 08:26:02;;;;;;;165.73;80.20;;;;;;;-8.79;73.83;97572.63;1715640;82;25848;-80
2021/12/23 08:28:26;;;;;;;154.80;74.92;;;;;;;-8.68;73.81;97575.94;1713000;82;26312;-81
2021/12/23 08:30:52;;;;;;;134.72;64.05;;;;;;;-8.59;73.79;97575.42;1708984;82;25682;-80
2021/12/23 08:33:19;;;;;;;122.50;59.08;;;;;;;-8.48;73.94;97559.45;1708900;82;28235;-80
2021/12/23 08:35:46;;;;;;;130.18;55.92;;;;;;;-8.26;74.08;97564.69;1722286;82;25661;-80
2021/12/23 08:38:13;;;;;;;103.65;49.42;;;;;;;-8.06;74.17;97559.08;1715687;81;25820;-81
2021/12/23 08:40:39;;;;;;;76.37;36.88;;;;;;;-7.87;74.15;97551.80;1710367;82;26506;-80
2021/12/23 08:43:06;;;;;;;53.73;27.32;;;;;;;-7.69;74.15;97550.64;1710299;82;25766;-80
2021/12/23 08:45:36;;;;;;;75.60;33.28;;;;;;;-7.47;74.12;97546.66;1711662;82;27350;-80
2021/12/23 08:48:03;;;;;;;53.00;25.92;;;;;;;-7.22;74.00;97547.25;1754619;80;25735;-80
2021/12/23 08:50:32;;;;;;;51.90;22.60;;;;;;;-7.03;73.80;97540.73;1738264;81;25698;-80
2021/12/23 08:53:20;;;;;;;45.73;20.90;;;;;;;-6.82;73.71;97541.11;1738187;81;25758;-80
2021/12/23 08:55:47;;;;;;;34.30;16.97;;;;;;;-6.53;73.57;97540.50;1711246;82;25709;-80
2021/12/23 08:58:14;;;;;;;41.30;19.48;;;;;;;-6.24;73.42;97535.41;1711131;82;27510;-80
2021/12/23 09:00:41;;;;;;;38.23;18.90;;;;;;;-5.97;73.30;97535.78;1711038;82;25791;-80
2021/12/23 09:03:09;;;;;;;33.67;15.68;;;;;;;-5.76;73.07;97524.20;1711057;82;25742;-81
2021/12/23 09:05:40;;;;;;;33.02;15.20;;;;;;;-5.58;72.96;97521.60;1710992;82;26425;-81
2021/12/23 09:08:07;;;;;;;29.45;14.98;;;;;;;-5.47;72.60;97519.88;1710917;82;25802;-81
2021/12/23 09:10:34;;;;;;;34.65;16.17;;;;;;;-5.42;72.11;97508.17;1711191;82;27566;-81
2021/12/23 09:13:01;;;;;;;30.37;15.20;;;;;;;-5.33;72.21;97508.85;1709964;82;25751;-81
2021/12/23 09:15:28;;;;;;;32.53;16.70;;;;;;;-5.25;72.02;97501.23;1707408;82;25937;-81
2021/12/23 09:17:55;;;;;;;36.25;16.27;;;;;;;-5.16;71.98;97513.23;1709696;83;25958;-81
2021/12/23 09:20:23;;;;;;;36.33;15.70;;;;;;;-5.03;71.90;97500.50;1753982;79;25731;-80
2021/12/23 09:22:52;;;;;;;34.53;16.45;;;;;;;-4.98;71.47;97500.53;1781278;79;27951;-81
2021/12/23 09:25:25;;;;;;;32.63;16.75;;;;;;;-4.93;71.53;97498.38;1781291;79;25744;-81
2021/12/23 09:28:10;;;;;;;30.27;14.98;;;;;;;-4.81;71.47;97494.84;1781338;79;25708;-82
2021/12/23 09:33:17;;;;;;;33.92;16.73;;;;;;;-4.72;70.73;97490.23;1781093;79;25694;-81
2021/12/23 09:35:45;;;;;;;33.98;17.20;;;;;;;-4.76;70.78;97487.45;1781379;79;27494;-81
2021/12/23 09:38:12;;;;;;;36.33;17.62;;;;;;;-4.73;70.45;97483.28;1781290;79;25657;-81
2021/12/23 09:40:40;;;;;;;34.98;16.62;;;;;;;-4.66;70.72;97482.80;1781433;79;25287;-81
2021/12/23 09:43:11;;;;;;;36.05;16.40;;;;;;;-4.58;70.64;97483.89;1781313;79;25870;-81
2021/12/23 09:45:40;;;;;;;33.18;16.20;;;;;;;-4.41;70.62;97473.41;1781302;79;25601;-81
2021/12/23 09:48:08;;;;;;;39.85;15.80;;;;;;;-4.27;70.44;97466.59;1781062;79;28275;-81
2021/12/23 09:50:39;;;;;;;41.20;19.02;;;;;;;-4.13;70.41;97449.72;1781147;79;25697;-81
2021/12/23 09:53:07;;;;;;;35.00;17.42;;;;;;;-4.11;69.78;97452.61;1781366;79;25846;-82
2021/12/23 09:55:37;;;;;;;36.65;17.65;;;;;;;-4.11;69.88;97440.73;1780242;78;45296;-82
2021/12/23 09:58:06;;;;;;;36.33;17.98;;;;;;;-4.02;69.89;97433.90;1805619;78;25721;-82
2021/12/23 10:00:37;;;;;;;37.65;18.12;;;;;;;-3.91;69.84;97422.50;1805968;78;27388;-82
2021/12/23 10:03:06;;;;;;;33.00;16.40;;;;;;;-3.80;69.73;97414.57;1805795;79;25876;-82
2021/12/23 10:05:34;;;;;;;42.70;20.68;;;;;;;-3.66;69.46;97405.08;1805959;78;26233;-82
2021/12/23 10:08:04;;;;;;;376.05;112.60;;;;;;;-3.68;69.26;97401.72;1805955;79;25791;-82
2021/12/23 10:10:40;;;;;;;63.70;26.10;;;;;;;-3.64;69.50;97400.52;1800970;79;25699;-82
2021/12/23 10:38:07;;;;;;;38.17;19.25;;;;;;;-2.94;68.57;97359.08;1748725;80;25690;-82
2021/12/23 10:40:37;;;;;;;34.10;17.02;;;;;;;-3.08;68.27;97349.66;1747834;80;28154;-82
2021/12/23 10:43:04;;;;;;;34.10;17.23;;;;;;;-3.11;68.22;97350.39;1748788;80;25755;-82
2021/12/23 10:45:45;;;;;;;34.55;18.82;;;;;;;-3.14;68.23;97339.59;1748900;80;25472;-81
2021/12/23 10:48:12;;;;;;;34.60;17.27;;;;;;;-3.10;68.39;97329.62;1748125;80;25779;-82
2021/12/23 10:53:27;;;;;;;31.27;17.05;;;;;;;-2.92;68.29;97318.84;1748881;80;33537;-83
2021/12/23 10:58:28;;;;;;;36.70;18.07;;;;;;;-2.88;67.76;97298.27;1737843;81;25829;-82
2021/12/23 11:01:00;;;;;;;35.55;18.65;;;;;;;-2.79;67.93;97300.16;1738096;81;25778;-82
2021/12/23 11:06:15;;;;;;;37.23;17.48;;;;;;;-2.67;67.76;97285.89;1738127;82;27475;-83
2021/12/23 11:11:57;;;;;;;32.10;17.55;;;;;;;-2.59;67.39;97265.75;1738042;81;25788;-83
2021/12/23 11:39:07;;;;;;;32.03;16.45;;;;;;;-2.93;67.25;97190.39;1707126;82;25834;-82
2021/12/23 11:43:58;;;;;;;31.68;17.42;;;;;;;-3.20;67.23;97175.13;1707126;82;25825;-82
2021/12/23 11:46:46;;;;;;;35.45;18.52;;;;;;;-3.16;67.65;97174.39;1707256;82;27385;-82
2021/12/23 11:49:11;;;;;;;37.05;18.65;;;;;;;-3.02;67.70;97176.67;1705702;82;25687;-82
2021/12/23 11:51:51;;;;;;;36.08;19.15;;;;;;;-2.89;67.78;97165.37;1707008;82;26393;-82
2021/12/23 11:54:16;;;;;;;31.27;17.82;;;;;;;-2.79;67.57;97149.09;1705792;82;25718;-82
2021/12/23 11:56:47;;;;;;;38.85;19.25;;;;;;;-2.71;67.63;97145.28;1706915;82;25824;-82
2021/12/23 11:59:15;;;;;;;40.40;19.62;;;;;;;-2.68;67.32;97144.17;1707244;82;27453;-81
2021/12/23 12:01:50;;;;;;;38.60;18.73;;;;;;;-2.72;67.12;97137.48;1707125;82;25775;-82
2021/12/23 12:04:37;;;;;;;37.55;18.17;;;;;;;-2.76;67.14;97139.55;1707200;82;25765;-81
2021/12/23 12:07:17;;;;;;;31.55;17.17;;;;;;;-2.74;67.22;97139.42;1707195;82;25881;-82
2021/12/23 12:10:07;;;;;;;32.85;17.67;;;;;;;-2.69;67.16;97131.45;1706791;82;25714;-81
2021/12/23 12:12:37;;;;;;;34.85;18.05;;;;;;;-2.60;67.25;97128.47;1707133;82;27541;-81
2021/12/23 12:15:05;;;;;;;34.50;17.50;;;;;;;-2.52;67.11;97114.55;1682827;82;25841;-82
2021/12/23 12:17:36;;;;;;;35.17;18.00;;;;;;;-2.49;67.04;97110.33;1707104;82;25846;-82
2021/12/23 12:20:23;;;;;;;33.42;19.00;;;;;;;-2.50;66.89;97112.13;1707195;82;25758;-82
2021/12/23 12:23:07;;;;;;;41.55;19.67;;;;;;;-2.47;66.95;97112.35;1707183;82;25694;-81
2021/12/23 12:25:52;;;;;;;31.45;17.45;;;;;;;-2.41;66.88;97119.23;1707285;82;27383;-82
2021/12/23 12:28:28;;;;;;;41.28;19.90;;;;;;;-2.45;66.96;97109.92;1706932;82;25728;-80
2021/12/23 12:31:06;;;;;;;35.52;19.55;;;;;;;-2.44;67.00;97104.16;1707205;82;25788;-81